sensor_id;sensor_type;location;lat;lon;timestamp;P1;durP1;ratioP1;P2;durP2;ratioP2
4533;SDS011;2279;51.448;7.306;2023-02-01T00:01:41;32.07;;;15.63;;
4533;SDS011;2279;51.448;7.306;2023-02-01T00:04:07;26.30;;;13.97;;
4533;SDS011;2279;51.448;7.306;2023-02-01T00:06:33;34.88;;;15.93;;
4533;SDS011;2279;51.448;7.306;2023-02-01T00:08:59;27.27;;;14.00;;
4533;SDS011;2279;51.448;7.306;2023-02-01T00:11:26;37.85;;;12.73;;
4533;SDS011;2279;51.448;7.306;2023-02-01T00:13:52;24.13;;;11.40;;
4533;SDS011;2279;51.448;7.306;2023-02-01T00:16:21;35.30;;;12.65;;
4533;SDS011;2279;51.448;7.306;2023-02-01T00:18:48;27.42;;;11.48;;
4533;SDS011;2279;51.448;7.306;2023-02-01T00:21:14;27.35;;;11.27;;
4533;SDS011;2279;51.448;7.306;2023-02-01T00:23:41;27.48;;;11.88;;
4533;SDS011;2279;51.448;7.306;2023-02-01T00:26:07;32.47;;;9.50;;
4533;SDS011;2279;51.448;7.306;2023-02-01T00:28:36;21.33;;;9.40;;
4533;SDS011;2279;51.448;7.306;2023-02-01T00:31:03;20.90;;;8.03;;
4533;SDS011;2279;51.448;7.306;2023-02-01T00:33:29;22.42;;;8.00;;
4533;SDS011;2279;51.448;7.306;2023-02-01T00:36:05;12.13;;;6.68;;
4533;SDS011;2279;51.448;7.306;2023-02-01T00:38:33;17.92;;;6.90;;
4533;SDS011;2279;51.448;7.306;2023-02-01T00:41:12;16.33;;;7.30;;
4533;SDS011;2279;51.448;7.306;2023-02-01T00:43:38;15.43;;;5.78;;
4533;SDS011;2279;51.448;7.306;2023-02-01T00:46:05;18.48;;;6.93;;
4533;SDS011;2279;51.448;7.306;2023-02-01T00:48:31;16.15;;;6.38;;
4533;SDS011;2279;51.448;7.306;2023-02-01T00:51:00;22.27;;;5.97;;
4533;SDS011;2279;51.448;7.306;2023-02-01T00:53:27;14.38;;;5.22;;
4533;SDS011;2279;51.448;7.306;2023-02-01T00:55:53;13.00;;;4.85;;
4533;SDS011;2279;51.448;7.306;2023-02-01T00:58:19;14.73;;;5.10;;
4533;SDS011;2279;51.448;7.306;2023-02-01T01:00:44;16.00;;;4.77;;
4533;SDS011;2279;51.448;7.306;2023-02-01T01:03:11;13.43;;;5.28;;
4533;SDS011;2279;51.448;7.306;2023-02-01T01:05:47;8.90;;;4.70;;
4533;SDS011;2279;51.448;7.306;2023-02-01T01:08:14;10.35;;;5.45;;
4533;SDS011;2279;51.448;7.306;2023-02-01T01:10:40;11.18;;;4.75;;
4533;SDS011;2279;51.448;7.306;2023-02-01T01:13:06;15.27;;;5.10;;
4533;SDS011;2279;51.448;7.306;2023-02-01T01:15:39;9.23;;;5.32;;
4533;SDS011;2279;51.448;7.306;2023-02-01T01:18:05;12.68;;;5.55;;
4533;SDS011;2279;51.448;7.306;2023-02-01T01:20:33;16.17;;;5.55;;
4533;SDS011;2279;51.448;7.306;2023-02-01T01:23:00;10.73;;;5.05;;
4533;SDS011;2279;51.448;7.306;2023-02-01T01:25:26;18.20;;;5.60;;
4533;SDS011;2279;51.448;7.306;2023-02-01T01:27:52;16.83;;;5.73;;
4533;SDS011;2279;51.448;7.306;2023-02-01T01:30:17;13.63;;;5.67;;
4533;SDS011;2279;51.448;7.306;2023-02-01T01:32:43;19.93;;;5.10;;
4533;SDS011;2279;51.448;7.306;2023-02-01T01:35:10;17.48;;;5.40;;
4533;SDS011;2279;51.448;7.306;2023-02-01T01:37:36;12.85;;;4.90;;
4533;SDS011;2279;51.448;7.306;2023-02-01T01:40:02;20.73;;;6.20;;
4533;SDS011;2279;51.448;7.306;2023-02-01T01:42:28;15.63;;;5.53;;
4533;SDS011;2279;51.448;7.306;2023-02-01T01:44:58;11.03;;;5.10;;
4533;SDS011;2279;51.448;7.306;2023-02-01T01:47:26;18.33;;;6.63;;
4533;SDS011;2279;51.448;7.306;2023-02-01T01:49:52;19.75;;;6.70;;
4533;SDS011;2279;51.448;7.306;2023-02-01T01:52:18;17.85;;;6.53;;
4533;SDS011;2279;51.448;7.306;2023-02-01T01:54:45;13.65;;;6.30;;
4533;SDS011;2279;51.448;7.306;2023-02-01T01:57:14;19.33;;;7.30;;
4533;SDS011;2279;51.448;7.306;2023-02-01T01:59:41;17.63;;;6.82;;
4533;SDS011;2279;51.448;7.306;2023-02-01T02:02:09;9.68;;;5.63;;
4533;SDS011;2279;51.448;7.306;2023-02-01T02:04:35;9.82;;;6.28;;
4533;SDS011;2279;51.448;7.306;2023-02-01T02:07:05;15.57;;;6.32;;
4533;SDS011;2279;51.448;7.306;2023-02-01T02:09:33;18.88;;;6.75;;
4533;SDS011;2279;51.448;7.306;2023-02-01T02:11:59;22.77;;;7.43;;
4533;SDS011;2279;51.448;7.306;2023-02-01T02:14:25;14.17;;;7.00;;
4533;SDS011;2279;51.448;7.306;2023-02-01T02:30:22;15.90;;;6.70;;
4533;SDS011;2279;51.448;7.306;2023-02-01T02:32:59;7.30;;;4.93;;
4533;SDS011;2279;51.448;7.306;2023-02-01T02:41:13;10.55;;;6.30;;
4533;SDS011;2279;51.448;7.306;2023-02-01T02:44:00;14.38;;;5.40;;
4533;SDS011;2279;51.448;7.306;2023-02-01T02:46:48;14.10;;;5.05;;
4533;SDS011;2279;51.448;7.306;2023-02-01T02:49:35;12.07;;;5.60;;
4533;SDS011;2279;51.448;7.306;2023-02-01T02:52:13;9.85;;;5.55;;
4533;SDS011;2279;51.448;7.306;2023-02-01T02:55:00;19.05;;;4.72;;
4533;SDS011;2279;51.448;7.306;2023-02-01T02:57:30;9.80;;;5.45;;
4533;SDS011;2279;51.448;7.306;2023-02-01T03:00:17;17.17;;;4.65;;
4533;SDS011;2279;51.448;7.306;2023-02-01T03:03:02;12.10;;;3.47;;
4533;SDS011;2279;51.448;7.306;2023-02-01T03:05:48;9.10;;;4.30;;
4533;SDS011;2279;51.448;7.306;2023-02-01T03:08:18;10.10;;;4.30;;
4533;SDS011;2279;51.448;7.306;2023-02-01T03:13:12;13.00;;;3.37;;
4533;SDS011;2279;51.448;7.306;2023-02-01T03:15:50;12.63;;;5.07;;
4533;SDS011;2279;51.448;7.306;2023-02-01T03:18:20;14.07;;;3.92;;
4533;SDS011;2279;51.448;7.306;2023-02-01T03:20:49;13.80;;;4.43;;
4533;SDS011;2279;51.448;7.306;2023-02-01T03:23:16;15.32;;;5.57;;
4533;SDS011;2279;51.448;7.306;2023-02-01T03:25:43;8.68;;;3.88;;
4533;SDS011;2279;51.448;7.306;2023-02-01T03:28:09;10.57;;;3.60;;
4533;SDS011;2279;51.448;7.306;2023-02-01T03:30:36;17.15;;;4.05;;
4533;SDS011;2279;51.448;7.306;2023-02-01T03:33:05;10.82;;;4.43;;
4533;SDS011;2279;51.448;7.306;2023-02-01T03:35:47;15.70;;;3.88;;
4533;SDS011;2279;51.448;7.306;2023-02-01T03:40:45;12.27;;;3.53;;
4533;SDS011;2279;51.448;7.306;2023-02-01T03:43:13;14.43;;;4.53;;
4533;SDS011;2279;51.448;7.306;2023-02-01T03:45:43;10.68;;;4.25;;
4533;SDS011;2279;51.448;7.306;2023-02-01T03:48:10;14.30;;;4.20;;
4533;SDS011;2279;51.448;7.306;2023-02-01T03:50:36;10.70;;;4.00;;
4533;SDS011;2279;51.448;7.306;2023-02-01T03:53:08;5.05;;;2.90;;
4533;SDS011;2279;51.448;7.306;2023-02-01T03:55:36;7.13;;;3.55;;
4533;SDS011;2279;51.448;7.306;2023-02-01T03:58:15;11.88;;;4.55;;
4533;SDS011;2279;51.448;7.306;2023-02-01T04:00:52;12.90;;;4.10;;
4533;SDS011;2279;51.448;7.306;2023-02-01T04:03:19;15.27;;;5.32;;
4533;SDS011;2279;51.448;7.306;2023-02-01T04:05:46;10.23;;;3.10;;
4533;SDS011;2279;51.448;7.306;2023-02-01T04:08:12;11.10;;;4.77;;
4533;SDS011;2279;51.448;7.306;2023-02-01T04:10:38;11.63;;;4.50;;
4533;SDS011;2279;51.448;7.306;2023-02-01T04:13:05;8.32;;;3.70;;
4533;SDS011;2279;51.448;7.306;2023-02-01T04:15:31;13.07;;;3.70;;
4533;SDS011;2279;51.448;7.306;2023-02-01T04:17:59;15.27;;;4.18;;
4533;SDS011;2279;51.448;7.306;2023-02-01T04:20:25;11.10;;;3.70;;
4533;SDS011;2279;51.448;7.306;2023-02-01T04:22:51;14.20;;;4.18;;
4533;SDS011;2279;51.448;7.306;2023-02-01T04:25:17;8.23;;;3.37;;
4533;SDS011;2279;51.448;7.306;2023-02-01T04:27:43;19.63;;;4.50;;
4533;SDS011;2279;51.448;7.306;2023-02-01T04:30:09;12.38;;;4.13;;
4533;SDS011;2279;51.448;7.306;2023-02-01T04:32:36;13.32;;;4.07;;
4533;SDS011;2279;51.448;7.306;2023-02-01T04:35:02;13.45;;;4.30;;
4533;SDS011;2279;51.448;7.306;2023-02-01T04:37:28;13.50;;;3.60;;
4533;SDS011;2279;51.448;7.306;2023-02-01T04:39:54;16.30;;;4.88;;
4533;SDS011;2279;51.448;7.306;2023-02-01T04:42:20;13.43;;;4.80;;
4533;SDS011;2279;51.448;7.306;2023-02-01T04:44:46;10.90;;;3.10;;
4533;SDS011;2279;51.448;7.306;2023-02-01T04:47:12;13.77;;;4.43;;
4533;SDS011;2279;51.448;7.306;2023-02-01T04:49:39;11.50;;;5.05;;
4533;SDS011;2279;51.448;7.306;2023-02-01T04:52:05;19.37;;;4.57;;
4533;SDS011;2279;51.448;7.306;2023-02-01T04:54:31;12.30;;;3.45;;
4533;SDS011;2279;51.448;7.306;2023-02-01T04:56:57;7.50;;;3.47;;
4533;SDS011;2279;51.448;7.306;2023-02-01T04:59:23;16.17;;;4.83;;
4533;SDS011;2279;51.448;7.306;2023-02-01T05:01:49;6.30;;;2.97;;
4533;SDS011;2279;51.448;7.306;2023-02-01T05:04:15;17.50;;;5.00;;
4533;SDS011;2279;51.448;7.306;2023-02-01T05:06:43;17.98;;;4.43;;
4533;SDS011;2279;51.448;7.306;2023-02-01T05:09:09;17.33;;;5.25;;
4533;SDS011;2279;51.448;7.306;2023-02-01T05:11:35;8.50;;;3.30;;
4533;SDS011;2279;51.448;7.306;2023-02-01T05:14:20;27.88;;;5.22;;
4533;SDS011;2279;51.448;7.306;2023-02-01T05:16:46;16.33;;;4.30;;
4533;SDS011;2279;51.448;7.306;2023-02-01T05:19:12;12.88;;;4.05;;
4533;SDS011;2279;51.448;7.306;2023-02-01T05:21:38;23.27;;;5.33;;
4533;SDS011;2279;51.448;7.306;2023-02-01T05:24:04;11.03;;;4.07;;
4533;SDS011;2279;51.448;7.306;2023-02-01T05:26:38;11.38;;;3.92;;
4533;SDS011;2279;51.448;7.306;2023-02-01T05:29:04;9.02;;;4.28;;
4533;SDS011;2279;51.448;7.306;2023-02-01T05:31:30;15.55;;;3.78;;
4533;SDS011;2279;51.448;7.306;2023-02-01T05:33:56;17.13;;;4.00;;
4533;SDS011;2279;51.448;7.306;2023-02-01T05:36:22;15.03;;;4.80;;
4533;SDS011;2279;51.448;7.306;2023-02-01T05:38:48;19.30;;;4.00;;
4533;SDS011;2279;51.448;7.306;2023-02-01T05:41:14;8.00;;;2.80;;
4533;SDS011;2279;51.448;7.306;2023-02-01T05:43:40;5.83;;;3.30;;
4533;SDS011;2279;51.448;7.306;2023-02-01T05:46:06;10.77;;;3.50;;
4533;SDS011;2279;51.448;7.306;2023-02-01T05:48:35;16.65;;;3.53;;
4533;SDS011;2279;51.448;7.306;2023-02-01T05:51:01;22.33;;;4.17;;
4533;SDS011;2279;51.448;7.306;2023-02-01T05:53:27;8.77;;;3.80;;
4533;SDS011;2279;51.448;7.306;2023-02-01T05:55:53;12.90;;;4.30;;
4533;SDS011;2279;51.448;7.306;2023-02-01T05:58:19;12.63;;;3.73;;
4533;SDS011;2279;51.448;7.306;2023-02-01T06:00:45;15.90;;;4.20;;
4533;SDS011;2279;51.448;7.306;2023-02-01T06:03:11;19.73;;;3.90;;
4533;SDS011;2279;51.448;7.306;2023-02-01T06:05:37;13.43;;;4.17;;
4533;SDS011;2279;51.448;7.306;2023-02-01T06:08:03;9.93;;;2.80;;
4533;SDS011;2279;51.448;7.306;2023-02-01T06:10:29;11.55;;;3.63;;
4533;SDS011;2279;51.448;7.306;2023-02-01T06:12:55;10.00;;;4.37;;
4533;SDS011;2279;51.448;7.306;2023-02-01T06:15:20;14.93;;;3.77;;
4533;SDS011;2279;51.448;7.306;2023-02-01T06:17:46;11.03;;;3.40;;
4533;SDS011;2279;51.448;7.306;2023-02-01T06:20:13;18.65;;;3.90;;
4533;SDS011;2279;51.448;7.306;2023-02-01T06:22:40;11.98;;;3.67;;
4533;SDS011;2279;51.448;7.306;2023-02-01T06:25:07;11.50;;;3.55;;
4533;SDS011;2279;51.448;7.306;2023-02-01T06:27:33;15.30;;;4.25;;
4533;SDS011;2279;51.448;7.306;2023-02-01T06:29:59;13.98;;;4.03;;
4533;SDS011;2279;51.448;7.306;2023-02-01T06:32:25;15.30;;;4.47;;
4533;SDS011;2279;51.448;7.306;2023-02-01T06:34:51;13.37;;;4.40;;
4533;SDS011;2279;51.448;7.306;2023-02-01T06:37:17;19.58;;;3.92;;
4533;SDS011;2279;51.448;7.306;2023-02-01T06:39:43;8.90;;;3.38;;
4533;SDS011;2279;51.448;7.306;2023-02-01T06:42:09;14.57;;;4.37;;
4533;SDS011;2279;51.448;7.306;2023-02-01T06:44:35;18.10;;;3.75;;
4533;SDS011;2279;51.448;7.306;2023-02-01T06:47:03;18.47;;;3.80;;
4533;SDS011;2279;51.448;7.306;2023-02-01T06:49:29;23.45;;;4.25;;
4533;SDS011;2279;51.448;7.306;2023-02-01T06:51:55;17.13;;;4.37;;
4533;SDS011;2279;51.448;7.306;2023-02-01T06:54:21;13.68;;;4.05;;
4533;SDS011;2279;51.448;7.306;2023-02-01T06:56:47;19.67;;;3.80;;
4533;SDS011;2279;51.448;7.306;2023-02-01T06:59:13;28.30;;;4.93;;
4533;SDS011;2279;51.448;7.306;2023-02-01T07:01:39;11.75;;;3.97;;
4533;SDS011;2279;51.448;7.306;2023-02-01T07:04:05;26.60;;;5.20;;
4533;SDS011;2279;51.448;7.306;2023-02-01T07:06:31;8.73;;;3.70;;
4533;SDS011;2279;51.448;7.306;2023-02-01T07:08:57;16.50;;;5.33;;
4533;SDS011;2279;51.448;7.306;2023-02-01T07:11:23;14.05;;;4.07;;
4533;SDS011;2279;51.448;7.306;2023-02-01T07:13:49;11.32;;;4.35;;
4533;SDS011;2279;51.448;7.306;2023-02-01T07:16:16;6.07;;;3.45;;
4533;SDS011;2279;51.448;7.306;2023-02-01T07:18:42;9.80;;;4.38;;
4533;SDS011;2279;51.448;7.306;2023-02-01T07:21:08;8.70;;;4.40;;
4533;SDS011;2279;51.448;7.306;2023-02-01T07:23:34;13.33;;;5.50;;
4533;SDS011;2279;51.448;7.306;2023-02-01T07:26:02;12.23;;;4.50;;
4533;SDS011;2279;51.448;7.306;2023-02-01T07:28:30;19.70;;;4.80;;
4533;SDS011;2279;51.448;7.306;2023-02-01T07:31:12;18.27;;;4.43;;
4533;SDS011;2279;51.448;7.306;2023-02-01T07:33:40;16.00;;;4.90;;
4533;SDS011;2279;51.448;7.306;2023-02-01T07:36:07;22.60;;;4.25;;
4533;SDS011;2279;51.448;7.306;2023-02-01T07:38:33;12.68;;;4.90;;
4533;SDS011;2279;51.448;7.306;2023-02-01T07:40:59;17.37;;;5.03;;
4533;SDS011;2279;51.448;7.306;2023-02-01T07:43:26;14.35;;;4.88;;
4533;SDS011;2279;51.448;7.306;2023-02-01T07:45:52;17.70;;;4.13;;
4533;SDS011;2279;51.448;7.306;2023-02-01T07:48:19;22.38;;;4.80;;
4533;SDS011;2279;51.448;7.306;2023-02-01T07:50:45;8.20;;;3.90;;
4533;SDS011;2279;51.448;7.306;2023-02-01T07:53:11;19.33;;;4.53;;
4533;SDS011;2279;51.448;7.306;2023-02-01T07:55:37;17.92;;;4.25;;
4533;SDS011;2279;51.448;7.306;2023-02-01T07:58:03;8.70;;;3.72;;
4533;SDS011;2279;51.448;7.306;2023-02-01T08:00:29;11.50;;;4.23;;
4533;SDS011;2279;51.448;7.306;2023-02-01T08:03:14;21.77;;;6.38;;
4533;SDS011;2279;51.448;7.306;2023-02-01T08:05:40;15.83;;;4.90;;
4533;SDS011;2279;51.448;7.306;2023-02-01T08:08:06;18.87;;;5.20;;
4533;SDS011;2279;51.448;7.306;2023-02-01T08:10:32;13.82;;;4.75;;
4533;SDS011;2279;51.448;7.306;2023-02-01T08:12:59;9.95;;;4.53;;
4533;SDS011;2279;51.448;7.306;2023-02-01T08:15:26;16.70;;;5.30;;
4533;SDS011;2279;51.448;7.306;2023-02-01T08:17:52;22.30;;;5.10;;
4533;SDS011;2279;51.448;7.306;2023-02-01T08:20:19;20.35;;;5.43;;
4533;SDS011;2279;51.448;7.306;2023-02-01T08:22:47;12.55;;;5.22;;
4533;SDS011;2279;51.448;7.306;2023-02-01T08:25:13;21.83;;;4.70;;
4533;SDS011;2279;51.448;7.306;2023-02-01T08:27:39;7.67;;;5.07;;
4533;SDS011;2279;51.448;7.306;2023-02-01T08:30:05;11.57;;;4.03;;
4533;SDS011;2279;51.448;7.306;2023-02-01T08:32:35;14.32;;;4.63;;
4533;SDS011;2279;51.448;7.306;2023-02-01T08:35:01;15.63;;;5.80;;
4533;SDS011;2279;51.448;7.306;2023-02-01T08:37:27;14.30;;;5.00;;
4533;SDS011;2279;51.448;7.306;2023-02-01T08:39:53;14.17;;;5.53;;
4533;SDS011;2279;51.448;7.306;2023-02-01T08:42:19;23.13;;;5.10;;
4533;SDS011;2279;51.448;7.306;2023-02-01T08:45:04;16.13;;;5.30;;
4533;SDS011;2279;51.448;7.306;2023-02-01T08:47:30;17.48;;;5.05;;
4533;SDS011;2279;51.448;7.306;2023-02-01T08:49:56;13.15;;;4.93;;
4533;SDS011;2279;51.448;7.306;2023-02-01T08:52:22;18.40;;;5.90;;
4533;SDS011;2279;51.448;7.306;2023-02-01T08:54:48;8.77;;;4.47;;
4533;SDS011;2279;51.448;7.306;2023-02-01T08:57:14;25.30;;;5.97;;
4533;SDS011;2279;51.448;7.306;2023-02-01T08:59:40;28.83;;;5.55;;
4533;SDS011;2279;51.448;7.306;2023-02-01T09:02:10;12.75;;;5.47;;
4533;SDS011;2279;51.448;7.306;2023-02-01T09:04:37;13.80;;;6.50;;
4533;SDS011;2279;51.448;7.306;2023-02-01T09:07:03;13.30;;;3.97;;
4533;SDS011;2279;51.448;7.306;2023-02-01T09:09:29;27.57;;;5.70;;
4533;SDS011;2279;51.448;7.306;2023-02-01T09:11:55;18.00;;;4.83;;
4533;SDS011;2279;51.448;7.306;2023-02-01T09:14:21;16.10;;;5.50;;
4533;SDS011;2279;51.448;7.306;2023-02-01T09:16:47;15.60;;;5.17;;
4533;SDS011;2279;51.448;7.306;2023-02-01T09:19:13;21.80;;;5.77;;
4533;SDS011;2279;51.448;7.306;2023-02-01T09:21:39;18.17;;;5.20;;
4533;SDS011;2279;51.448;7.306;2023-02-01T09:24:05;11.30;;;4.70;;
4533;SDS011;2279;51.448;7.306;2023-02-01T09:26:32;12.65;;;5.25;;
4533;SDS011;2279;51.448;7.306;2023-02-01T09:28:58;11.00;;;5.05;;
4533;SDS011;2279;51.448;7.306;2023-02-01T09:31:24;23.02;;;6.68;;
4533;SDS011;2279;51.448;7.306;2023-02-01T09:33:50;26.03;;;4.87;;
4533;SDS011;2279;51.448;7.306;2023-02-01T09:36:16;17.07;;;6.10;;
4533;SDS011;2279;51.448;7.306;2023-02-01T09:38:44;17.58;;;5.43;;
4533;SDS011;2279;51.448;7.306;2023-02-01T09:43:58;22.60;;;5.68;;
4533;SDS011;2279;51.448;7.306;2023-02-01T09:46:29;15.32;;;7.13;;
4533;SDS011;2279;51.448;7.306;2023-02-01T09:48:59;24.73;;;6.43;;
4533;SDS011;2279;51.448;7.306;2023-02-01T09:51:34;12.07;;;5.20;;
4533;SDS011;2279;51.448;7.306;2023-02-01T09:54:04;16.48;;;5.20;;
4533;SDS011;2279;51.448;7.306;2023-02-01T09:56:34;13.77;;;5.22;;
4533;SDS011;2279;51.448;7.306;2023-02-01T10:01:32;21.38;;;6.43;;
4533;SDS011;2279;51.448;7.306;2023-02-01T10:04:01;27.58;;;6.63;;
4533;SDS011;2279;51.448;7.306;2023-02-01T10:06:47;20.70;;;6.05;;
4533;SDS011;2279;51.448;7.306;2023-02-01T10:09:37;25.58;;;7.70;;
4533;SDS011;2279;51.448;7.306;2023-02-01T10:17:18;16.80;;;6.20;;
4533;SDS011;2279;51.448;7.306;2023-02-01T10:19:53;21.00;;;6.38;;
4533;SDS011;2279;51.448;7.306;2023-02-01T10:22:42;13.83;;;6.00;;
4533;SDS011;2279;51.448;7.306;2023-02-01T10:27:35;15.30;;;5.13;;
4533;SDS011;2279;51.448;7.306;2023-02-01T10:30:18;10.40;;;5.67;;
4533;SDS011;2279;51.448;7.306;2023-02-01T10:32:44;9.17;;;5.20;;
4533;SDS011;2279;51.448;7.306;2023-02-01T10:35:17;17.20;;;7.03;;
4533;SDS011;2279;51.448;7.306;2023-02-01T10:37:44;13.00;;;6.20;;
4533;SDS011;2279;51.448;7.306;2023-02-01T10:42:37;14.57;;;5.77;;
4533;SDS011;2279;51.448;7.306;2023-02-01T10:45:05;22.80;;;6.05;;
4533;SDS011;2279;51.448;7.306;2023-02-01T10:47:31;17.00;;;5.65;;
4533;SDS011;2279;51.448;7.306;2023-02-01T10:52:39;17.70;;;7.77;;
4533;SDS011;2279;51.448;7.306;2023-02-01T10:57:55;14.32;;;6.05;;
4533;SDS011;2279;51.448;7.306;2023-02-01T11:00:24;15.38;;;5.95;;
4533;SDS011;2279;51.448;7.306;2023-02-01T11:02:51;22.88;;;6.05;;
4533;SDS011;2279;51.448;7.306;2023-02-01T11:05:17;13.20;;;5.25;;
4533;SDS011;2279;51.448;7.306;2023-02-01T11:07:50;20.30;;;6.72;;
4533;SDS011;2279;51.448;7.306;2023-02-01T11:10:38;21.45;;;6.45;;
4533;SDS011;2279;51.448;7.306;2023-02-01T11:13:11;11.52;;;5.47;;
4533;SDS011;2279;51.448;7.306;2023-02-01T11:15:37;14.20;;;7.05;;
4533;SDS011;2279;51.448;7.306;2023-02-01T11:18:16;12.30;;;6.07;;
4533;SDS011;2279;51.448;7.306;2023-02-01T11:20:43;19.83;;;5.82;;
4533;SDS011;2279;51.448;7.306;2023-02-01T11:23:14;23.25;;;5.68;;
4533;SDS011;2279;51.448;7.306;2023-02-01T11:25:47;10.63;;;4.93;;
4533;SDS011;2279;51.448;7.306;2023-02-01T11:28:13;15.68;;;5.70;;
4533;SDS011;2279;51.448;7.306;2023-02-01T11:30:41;8.43;;;5.30;;
4533;SDS011;2279;51.448;7.306;2023-02-01T11:33:10;17.80;;;5.17;;
4533;SDS011;2279;51.448;7.306;2023-02-01T11:35:38;15.10;;;5.70;;
4533;SDS011;2279;51.448;7.306;2023-02-01T11:38:12;11.25;;;5.85;;
4533;SDS011;2279;51.448;7.306;2023-02-01T11:40:39;14.70;;;5.93;;
4533;SDS011;2279;51.448;7.306;2023-02-01T11:43:13;14.07;;;4.50;;
4533;SDS011;2279;51.448;7.306;2023-02-01T11:45:39;14.50;;;4.80;;
4533;SDS011;2279;51.448;7.306;2023-02-01T11:48:09;14.60;;;5.47;;
4533;SDS011;2279;51.448;7.306;2023-02-01T11:50:38;16.03;;;5.67;;
4533;SDS011;2279;51.448;7.306;2023-02-01T11:53:25;15.53;;;4.80;;
4533;SDS011;2279;51.448;7.306;2023-02-01T11:55:55;18.10;;;5.07;;
4533;SDS011;2279;51.448;7.306;2023-02-01T12:16:29;17.47;;;6.70;;
4533;SDS011;2279;51.448;7.306;2023-02-01T12:19:08;28.40;;;6.90;;
4533;SDS011;2279;51.448;7.306;2023-02-01T12:27:13;16.02;;;7.00;;
4533;SDS011;2279;51.448;7.306;2023-02-01T12:29:45;14.45;;;5.28;;
4533;SDS011;2279;51.448;7.306;2023-02-01T12:32:20;11.05;;;5.03;;
4533;SDS011;2279;51.448;7.306;2023-02-01T12:37:21;16.95;;;5.25;;
4533;SDS011;2279;51.448;7.306;2023-02-01T12:42:21;19.88;;;6.50;;
4533;SDS011;2279;51.448;7.306;2023-02-01T12:44:50;14.80;;;6.60;;
4533;SDS011;2279;51.448;7.306;2023-02-01T12:47:18;19.38;;;5.53;;
4533;SDS011;2279;51.448;7.306;2023-02-01T12:52:29;14.80;;;6.68;;
4533;SDS011;2279;51.448;7.306;2023-02-01T12:57:36;11.23;;;4.82;;
4533;SDS011;2279;51.448;7.306;2023-02-01T13:03:02;9.15;;;5.18;;
4533;SDS011;2279;51.448;7.306;2023-02-01T13:05:31;10.95;;;4.65;;
4533;SDS011;2279;51.448;7.306;2023-02-01T13:08:02;19.15;;;4.55;;
4533;SDS011;2279;51.448;7.306;2023-02-01T13:10:38;23.42;;;5.47;;
4533;SDS011;2279;51.448;7.306;2023-02-01T13:15:43;12.35;;;4.65;;
4533;SDS011;2279;51.448;7.306;2023-02-01T13:18:13;18.05;;;4.40;;
4533;SDS011;2279;51.448;7.306;2023-02-01T13:20:45;12.40;;;4.78;;
4533;SDS011;2279;51.448;7.306;2023-02-01T13:25:49;14.40;;;4.50;;
4533;SDS011;2279;51.448;7.306;2023-02-01T13:28:24;25.65;;;3.95;;
4533;SDS011;2279;51.448;7.306;2023-02-01T13:31:05;17.10;;;4.32;;
4533;SDS011;2279;51.448;7.306;2023-02-01T13:44:25;19.08;;;3.63;;
4533;SDS011;2279;51.448;7.306;2023-02-01T13:46:51;14.27;;;4.30;;
4533;SDS011;2279;51.448;7.306;2023-02-01T13:49:21;9.70;;;4.15;;
4533;SDS011;2279;51.448;7.306;2023-02-01T13:51:49;11.37;;;3.33;;
4533;SDS011;2279;51.448;7.306;2023-02-01T13:54:50;11.40;;;3.23;;
4533;SDS011;2279;51.448;7.306;2023-02-01T13:57:32;24.40;;;3.60;;
4533;SDS011;2279;51.448;7.306;2023-02-01T14:03:01;13.40;;;3.43;;
4533;SDS011;2279;51.448;7.306;2023-02-01T14:13:29;15.02;;;3.42;;
4533;SDS011;2279;51.448;7.306;2023-02-01T14:18:54;24.85;;;3.58;;
4533;SDS011;2279;51.448;7.306;2023-02-01T14:23:45;11.03;;;2.67;;
4533;SDS011;2279;51.448;7.306;2023-02-01T14:26:16;11.70;;;3.35;;
4533;SDS011;2279;51.448;7.306;2023-02-01T14:28:44;16.42;;;3.53;;
4533;SDS011;2279;51.448;7.306;2023-02-01T14:31:14;11.90;;;4.43;;
4533;SDS011;2279;51.448;7.306;2023-02-01T14:33:41;8.98;;;3.45;;
4533;SDS011;2279;51.448;7.306;2023-02-01T14:36:09;12.93;;;3.10;;
4533;SDS011;2279;51.448;7.306;2023-02-01T14:38:36;12.73;;;2.93;;
4533;SDS011;2279;51.448;7.306;2023-02-01T14:47:02;10.60;;;3.53;;
4533;SDS011;2279;51.448;7.306;2023-02-01T14:49:32;14.43;;;3.50;;
4533;SDS011;2279;51.448;7.306;2023-02-01T14:51:58;16.30;;;3.97;;
4533;SDS011;2279;51.448;7.306;2023-02-01T14:54:25;11.07;;;3.60;;
4533;SDS011;2279;51.448;7.306;2023-02-01T14:56:51;10.80;;;4.20;;
4533;SDS011;2279;51.448;7.306;2023-02-01T14:59:18;10.43;;;3.07;;
4533;SDS011;2279;51.448;7.306;2023-02-01T15:01:50;9.23;;;3.20;;
4533;SDS011;2279;51.448;7.306;2023-02-01T15:04:18;9.03;;;3.30;;
4533;SDS011;2279;51.448;7.306;2023-02-01T15:14:23;15.43;;;4.47;;
4533;SDS011;2279;51.448;7.306;2023-02-01T15:16:50;14.10;;;4.20;;
4533;SDS011;2279;51.448;7.306;2023-02-01T15:19:19;9.85;;;3.78;;
4533;SDS011;2279;51.448;7.306;2023-02-01T15:21:47;13.18;;;3.67;;
4533;SDS011;2279;51.448;7.306;2023-02-01T15:24:14;13.43;;;3.40;;
4533;SDS011;2279;51.448;7.306;2023-02-01T15:26:40;12.57;;;4.07;;
4533;SDS011;2279;51.448;7.306;2023-02-01T15:29:09;6.53;;;2.63;;
4533;SDS011;2279;51.448;7.306;2023-02-01T15:31:37;5.13;;;2.93;;
4533;SDS011;2279;51.448;7.306;2023-02-01T15:34:03;12.57;;;3.10;;
4533;SDS011;2279;51.448;7.306;2023-02-01T15:36:30;12.93;;;3.40;;
4533;SDS011;2279;51.448;7.306;2023-02-01T15:41:52;5.37;;;3.03;;
4533;SDS011;2279;51.448;7.306;2023-02-01T15:44:41;6.03;;;3.00;;
4533;SDS011;2279;51.448;7.306;2023-02-01T15:47:27;15.97;;;5.90;;
4533;SDS011;2279;51.448;7.306;2023-02-01T15:49:56;6.55;;;3.33;;
4533;SDS011;2279;51.448;7.306;2023-02-01T15:52:27;8.68;;;4.32;;
4533;SDS011;2279;51.448;7.306;2023-02-01T15:54:55;9.60;;;5.30;;
4533;SDS011;2279;51.448;7.306;2023-02-01T15:57:23;13.20;;;3.33;;
4533;SDS011;2279;51.448;7.306;2023-02-01T15:59:55;18.38;;;4.03;;
4533;SDS011;2279;51.448;7.306;2023-02-01T16:02:35;14.50;;;4.63;;
4533;SDS011;2279;51.448;7.306;2023-02-01T16:05:04;15.57;;;3.40;;
4533;SDS011;2279;51.448;7.306;2023-02-01T16:07:32;14.65;;;3.58;;
4533;SDS011;2279;51.448;7.306;2023-02-01T16:09:59;18.07;;;3.77;;
4533;SDS011;2279;51.448;7.306;2023-02-01T16:12:44;12.40;;;3.00;;
4533;SDS011;2279;51.448;7.306;2023-02-01T16:15:11;14.20;;;3.60;;
4533;SDS011;2279;51.448;7.306;2023-02-01T16:17:37;16.40;;;3.70;;
4533;SDS011;2279;51.448;7.306;2023-02-01T16:20:03;10.53;;;3.30;;
4533;SDS011;2279;51.448;7.306;2023-02-01T16:22:29;9.68;;;3.78;;
4533;SDS011;2279;51.448;7.306;2023-02-01T16:24:55;9.93;;;3.37;;
4533;SDS011;2279;51.448;7.306;2023-02-01T16:27:21;8.67;;;2.80;;
4533;SDS011;2279;51.448;7.306;2023-02-01T16:29:48;8.83;;;3.70;;
4533;SDS011;2279;51.448;7.306;2023-02-01T16:32:16;15.98;;;4.57;;
4533;SDS011;2279;51.448;7.306;2023-02-01T16:34:43;14.60;;;3.70;;
4533;SDS011;2279;51.448;7.306;2023-02-01T16:37:11;9.10;;;3.80;;
4533;SDS011;2279;51.448;7.306;2023-02-01T16:39:38;13.60;;;3.30;;
4533;SDS011;2279;51.448;7.306;2023-02-01T16:42:09;11.67;;;3.50;;
4533;SDS011;2279;51.448;7.306;2023-02-01T16:44:35;14.10;;;3.92;;
4533;SDS011;2279;51.448;7.306;2023-02-01T16:47:01;16.63;;;4.23;;
4533;SDS011;2279;51.448;7.306;2023-02-01T16:49:27;16.37;;;3.87;;
4533;SDS011;2279;51.448;7.306;2023-02-01T16:51:56;13.67;;;3.83;;
4533;SDS011;2279;51.448;7.306;2023-02-01T16:54:22;13.63;;;4.10;;
4533;SDS011;2279;51.448;7.306;2023-02-01T16:56:48;13.48;;;4.20;;
4533;SDS011;2279;51.448;7.306;2023-02-01T16:59:14;11.87;;;3.70;;
4533;SDS011;2279;51.448;7.306;2023-02-01T17:01:46;9.33;;;3.67;;
4533;SDS011;2279;51.448;7.306;2023-02-01T17:04:12;15.40;;;4.65;;
4533;SDS011;2279;51.448;7.306;2023-02-01T17:06:41;9.30;;;3.50;;
4533;SDS011;2279;51.448;7.306;2023-02-01T17:09:08;12.43;;;3.03;;
4533;SDS011;2279;51.448;7.306;2023-02-01T17:11:34;47.28;;;7.05;;
4533;SDS011;2279;51.448;7.306;2023-02-01T17:14:36;8.37;;;3.40;;
4533;SDS011;2279;51.448;7.306;2023-02-01T17:16:54;5.97;;;3.20;;
4533;SDS011;2279;51.448;7.306;2023-02-01T17:19:21;13.35;;;3.85;;
4533;SDS011;2279;51.448;7.306;2023-02-01T17:21:48;28.42;;;4.50;;
4533;SDS011;2279;51.448;7.306;2023-02-01T17:24:17;4.75;;;1.55;;